createdAt,value
2022-11-15T00:00:57.536Z,11.65
2022-11-15T00:03:26.424Z,12.25
2022-11-15T00:05:53.331Z,11.40
2022-11-15T00:08:19.987Z,13.40
2022-11-15T00:10:57.141Z,11.45
2022-11-15T00:13:24.280Z,11.30
2022-11-15T00:15:50.923Z,11.50
2022-11-15T00:18:18.028Z,12.18
2022-11-15T00:20:45.160Z,13.57
2022-11-15T00:23:12.000Z,13.13
2022-11-15T00:25:38.603Z,11.85
2022-11-15T00:28:05.196Z,13.60
2022-11-15T00:30:31.782Z,15.05
2022-11-15T00:33:03.875Z,14.15
2022-11-15T00:35:33.587Z,11.93
2022-11-15T00:38:00.828Z,12.38
2022-11-15T00:40:27.552Z,11.75
2022-11-15T00:42:54.204Z,11.35
2022-11-15T00:45:20.764Z,12.05
2022-11-15T00:47:47.895Z,12.73
2022-11-15T00:50:15.503Z,11.65
2022-11-15T00:52:42.332Z,13.85
2022-11-15T00:55:20.057Z,14.13
2022-11-15T00:57:47.404Z,12.00
2022-11-15T01:00:14.461Z,11.65
2022-11-15T01:02:41.040Z,13.10
2022-11-15T01:05:08.139Z,11.70
2022-11-15T01:07:34.884Z,11.15
2022-11-15T01:10:01.583Z,12.73
2022-11-15T01:12:28.229Z,10.38
2022-11-15T01:14:55.353Z,11.48
2022-11-15T01:17:22.053Z,12.15
2022-11-15T01:19:48.651Z,13.25
2022-11-15T01:22:15.218Z,12.60
2022-11-15T01:24:41.882Z,13.70
2022-11-15T01:27:08.737Z,11.43
2022-11-15T01:29:35.400Z,11.48
2022-11-15T01:32:02.300Z,8.05
2022-11-15T01:34:28.840Z,11.80
2022-11-15T01:36:55.404Z,11.65
2022-11-15T01:39:22.082Z,12.00
2022-11-15T01:41:48.644Z,11.38
2022-11-15T01:44:35.648Z,8.40
2022-11-15T01:47:07.010Z,8.63
2022-11-15T01:49:36.131Z,10.45
2022-11-15T01:52:05.884Z,10.00
2022-11-15T01:54:33.416Z,7.78
2022-11-15T01:57:10.304Z,7.63
2022-11-15T01:59:40.569Z,9.63
2022-11-15T02:02:07.417Z,9.63
2022-11-15T02:04:37.316Z,10.27
2022-11-15T02:07:06.217Z,10.38
2022-11-15T02:09:32.855Z,9.02
2022-11-15T02:12:00.600Z,9.63
2022-11-15T02:14:29.261Z,9.85
2022-11-15T02:17:21.687Z,9.73
2022-11-15T02:20:18.448Z,10.25
2022-11-15T02:22:57.256Z,11.90
2022-11-15T02:25:33.329Z,9.18
2022-11-15T02:30:42.102Z,12.20
2022-11-15T02:33:27.406Z,11.75
2022-11-15T02:36:01.586Z,10.13
2022-11-15T02:38:39.500Z,13.05
2022-11-15T02:41:11.289Z,14.20
2022-11-15T02:44:06.940Z,12.75
2022-11-15T02:47:16.286Z,13.48
2022-11-15T02:49:55.552Z,13.95
2022-11-15T02:52:26.289Z,15.27
2022-11-15T02:54:57.683Z,13.60
2022-11-15T02:57:50.619Z,15.68
2022-11-15T03:00:20.284Z,13.98
2022-11-15T03:03:05.703Z,12.57
2022-11-15T03:06:01.469Z,15.65
2022-11-15T03:08:57.284Z,15.93
2022-11-15T03:11:24.592Z,17.40
2022-11-15T03:14:19.695Z,15.88
2022-11-15T03:16:49.200Z,15.93
2022-11-15T03:19:41.619Z,14.90
2022-11-15T03:22:15.160Z,16.17
2022-11-15T06:11:15.287Z,17.27
2022-11-15T06:13:41.914Z,14.30
2022-11-15T06:16:08.447Z,12.93
2022-11-15T06:18:36.101Z,10.63
2022-11-15T06:21:02.656Z,18.77
2022-11-15T06:23:33.444Z,16.27
2022-11-15T06:26:00.565Z,15.93
2022-11-15T06:28:33.969Z,14.85
2022-11-15T06:31:05.488Z,18.80
2022-11-15T06:33:32.731Z,16.58
2022-11-15T06:36:10.869Z,16.23
2022-11-15T06:38:41.191Z,16.27
2022-11-15T06:41:10.379Z,16.08
2022-11-15T06:43:37.460Z,18.45
2022-11-15T06:46:05.805Z,19.83
2022-11-15T06:48:33.964Z,19.13
2022-11-15T06:51:02.168Z,17.80
2022-11-15T06:53:29.281Z,20.45
2022-11-15T06:56:03.784Z,18.85
2022-11-15T06:58:30.690Z,21.65
2022-11-15T07:01:12.649Z,17.35
2022-11-15T07:03:41.639Z,16.60
2022-11-15T07:06:09.543Z,15.25
2022-11-15T07:08:36.748Z,17.90
2022-11-15T07:11:08.425Z,16.45
2022-11-15T07:13:36.528Z,15.05
2022-11-15T07:16:07.951Z,17.27
2022-11-15T07:18:39.405Z,13.30
2022-11-15T07:21:08.521Z,15.35
2022-11-15T07:23:38.287Z,17.15
2022-11-15T07:26:05.034Z,14.30
2022-11-15T07:28:31.826Z,14.13
2022-11-15T07:30:58.635Z,13.73
2022-11-15T07:33:25.183Z,16.13
2022-11-15T07:35:51.769Z,16.23
2022-11-15T07:38:21.611Z,14.93
2022-11-15T07:40:48.533Z,15.40
2022-11-15T07:43:15.185Z,17.08
2022-11-15T07:45:46.473Z,16.17
2022-11-15T07:48:13.071Z,15.23
2022-11-15T07:50:43.474Z,19.13
2022-11-15T07:53:11.413Z,14.18
2022-11-15T07:55:38.345Z,18.30
2022-11-15T07:58:06.612Z,17.27
2022-11-15T08:00:34.196Z,19.42
2022-11-15T08:03:07.523Z,20.33
2022-11-15T08:05:34.840Z,18.42
2022-11-15T08:08:01.715Z,18.05
2022-11-15T08:10:29.628Z,16.35
2022-11-15T08:13:08.393Z,17.42
2022-11-15T08:15:36.507Z,18.55
2022-11-15T08:18:06.048Z,20.05
2022-11-15T08:20:33.360Z,19.92
2022-11-15T08:23:02.023Z,16.35
2022-11-15T08:25:30.837Z,16.00
2022-11-15T08:27:59.633Z,16.55
2022-11-15T08:30:26.795Z,21.38
2022-11-15T08:32:54.478Z,18.00
2022-11-15T08:35:26.232Z,16.52
2022-11-15T08:37:55.735Z,16.33
2022-11-15T08:40:24.255Z,15.73
2022-11-15T08:42:50.932Z,16.92
2022-11-15T08:45:17.591Z,18.23
2022-11-15T08:47:49.727Z,16.67
2022-11-15T08:50:19.748Z,13.93
2022-11-15T08:52:46.387Z,14.27
2022-11-15T08:55:12.937Z,16.10
2022-11-15T08:57:39.518Z,16.05
2022-11-15T09:00:06.897Z,18.92
2022-11-15T09:02:33.472Z,16.00
2022-11-15T09:05:00.080Z,16.08
2022-11-15T09:07:26.722Z,15.95
2022-11-15T09:09:53.360Z,15.18
2022-11-15T09:12:19.975Z,17.48
2022-11-15T09:14:46.531Z,21.10
2022-11-15T09:17:13.067Z,15.05
2022-11-15T09:19:39.657Z,17.92
2022-11-15T09:22:09.573Z,19.30
2022-11-15T09:24:36.384Z,18.60
2022-11-15T09:27:03.090Z,18.10
2022-11-15T09:29:29.708Z,17.55
2022-11-15T09:31:56.266Z,18.63
2022-11-15T09:34:22.916Z,15.07
2022-11-15T09:36:49.474Z,15.77
2022-11-15T09:39:16.060Z,19.15
2022-11-15T09:41:56.540Z,18.13
2022-11-15T09:44:59.941Z,16.42
2022-11-15T09:47:35.593Z,13.90
2022-11-15T09:50:08.955Z,17.80
2022-11-15T09:52:37.585Z,19.40
2022-11-15T09:55:07.301Z,16.50
2022-11-15T09:57:43.047Z,16.25
2022-11-15T10:00:46.347Z,18.35
2022-11-15T10:03:15.092Z,15.30
2022-11-15T10:05:49.856Z,18.27
2022-11-15T10:08:22.528Z,17.38
2022-11-15T10:11:09.772Z,17.50
2022-11-15T10:13:45.657Z,19.70
2022-11-15T10:16:35.609Z,19.08
2022-11-15T10:19:11.363Z,18.42
2022-11-15T10:22:09.426Z,19.83
2022-11-15T10:24:41.249Z,17.73
2022-11-15T10:27:17.546Z,16.58
2022-11-15T10:29:46.810Z,20.95
2022-11-15T10:32:15.268Z,17.92
2022-11-15T10:34:42.306Z,21.08
2022-11-15T10:37:09.466Z,16.63
2022-11-15T10:39:36.048Z,16.90
2022-11-15T10:42:29.114Z,16.92
2022-11-15T10:44:55.957Z,17.83
2022-11-15T10:47:23.195Z,18.33
2022-11-15T10:49:57.598Z,18.30
2022-11-15T10:52:25.537Z,17.77
2022-11-15T10:54:53.168Z,18.48
2022-11-15T10:57:23.680Z,19.15
2022-11-15T10:59:53.956Z,18.90
2022-11-15T11:02:31.664Z,18.02
2022-11-15T11:04:58.334Z,16.02
2022-11-15T11:07:28.299Z,16.15
2022-11-15T11:09:59.208Z,19.80
2022-11-15T11:12:33.865Z,18.85
2022-11-15T11:15:13.029Z,17.02
2022-11-15T11:17:51.447Z,19.17
2022-11-15T11:20:37.807Z,18.67
2022-11-15T11:23:13.306Z,17.30
2022-11-15T11:26:22.062Z,19.00
2022-11-15T11:29:12.977Z,17.08
2022-11-15T11:32:02.144Z,17.58
2022-11-15T11:35:01.217Z,19.95
2022-11-15T11:37:42.628Z,17.70
2022-11-15T11:40:44.324Z,16.10
2022-11-15T11:43:29.174Z,18.73
2022-11-15T11:46:14.474Z,14.55
2022-11-15T11:48:48.431Z,16.77
2022-11-15T11:51:24.370Z,18.10
2022-11-15T11:56:30.827Z,17.13
2022-11-15T11:59:07.609Z,14.80
2022-11-15T12:01:43.936Z,19.45
2022-11-15T12:04:13.665Z,17.80
2022-11-15T12:06:57.719Z,16.67
2022-11-15T12:09:45.609Z,20.35
2022-11-15T12:12:22.392Z,19.67
2022-11-15T12:15:04.480Z,15.43
2022-11-15T12:17:33.089Z,18.08
2022-11-15T12:20:10.309Z,17.38
2022-11-15T12:22:37.833Z,18.85
2022-11-15T12:25:56.579Z,21.33
2022-11-15T12:28:33.500Z,17.95
2022-11-15T12:31:17.391Z,16.45
2022-11-15T12:34:00.612Z,23.05
2022-11-15T12:36:43.078Z,21.63
2022-11-15T12:39:14.038Z,21.70
2022-11-15T12:41:42.871Z,19.35
2022-11-15T12:44:24.122Z,17.88
2022-11-15T12:46:50.647Z,21.10
2022-11-15T12:49:40.417Z,21.15
2022-11-15T12:52:09.281Z,18.02
2022-11-15T12:54:41.446Z,17.85
2022-11-15T12:57:07.977Z,16.70
2022-11-15T12:59:59.157Z,19.65
2022-11-15T13:02:49.442Z,18.48
2022-11-15T13:05:23.420Z,19.95
2022-11-15T13:07:50.076Z,18.88
2022-11-15T13:10:16.577Z,18.65
2022-11-15T13:12:46.118Z,20.80
2022-11-15T13:15:12.616Z,21.67
2022-11-15T13:17:55.716Z,21.45
2022-11-15T13:20:28.690Z,17.63
2022-11-15T13:23:05.659Z,20.88
2022-11-15T13:26:05.995Z,17.80
2022-11-15T13:28:32.662Z,19.30
2022-11-15T13:31:02.093Z,20.75
2022-11-15T13:33:37.911Z,20.98
2022-11-15T13:36:15.585Z,18.98
2022-11-15T13:38:42.944Z,20.02
2022-11-15T13:41:17.977Z,19.80
2022-11-15T13:43:44.868Z,22.00
2022-11-15T13:46:24.569Z,18.15
2022-11-15T13:48:57.588Z,18.92
2022-11-15T13:51:47.276Z,19.92
2022-11-15T13:54:18.539Z,20.20
2022-11-15T13:56:52.963Z,19.50
2022-11-15T13:59:50.880Z,18.95
2022-11-15T14:02:26.278Z,24.55
2022-11-15T14:04:57.258Z,17.55
2022-11-15T14:07:26.648Z,19.83
2022-11-15T14:09:53.333Z,18.67
2022-11-15T14:12:30.842Z,20.33
2022-11-15T14:14:58.255Z,21.30
2022-11-15T14:17:30.855Z,19.45
2022-11-15T14:19:59.014Z,19.35
2022-11-15T14:22:29.023Z,20.40
2022-11-15T14:25:13.682Z,19.20
2022-11-15T14:27:41.617Z,19.13
2022-11-15T14:30:17.649Z,22.77
2022-11-15T14:35:20.759Z,22.10
2022-11-15T14:53:03.634Z,27.70
2022-11-15T14:55:35.276Z,21.48
2022-11-15T14:58:06.165Z,22.23
2022-11-15T15:00:35.229Z,20.45
2022-11-15T15:03:02.639Z,21.73
2022-11-15T15:05:41.396Z,22.98
2022-11-15T15:08:09.036Z,23.55
2022-11-15T15:10:44.352Z,21.10
2022-11-15T15:13:22.820Z,21.90
2022-11-15T15:15:50.687Z,21.48
2022-11-15T15:18:17.685Z,22.42
2022-11-15T15:20:46.817Z,23.73
2022-11-15T15:23:19.125Z,22.67
2022-11-15T15:25:47.019Z,19.88
2022-11-15T15:28:14.058Z,18.70
2022-11-15T15:30:40.716Z,20.08
2022-11-15T15:33:07.426Z,22.35
2022-11-15T15:35:35.724Z,22.92
2022-11-15T15:38:03.073Z,22.38
2022-11-15T15:40:32.670Z,21.27
2022-11-15T15:42:59.831Z,21.27
2022-11-15T15:58:37.311Z,21.95
2022-11-15T16:01:04.121Z,23.92
2022-11-15T16:03:30.741Z,18.90
2022-11-15T16:05:57.401Z,20.50
2022-11-15T16:08:25.443Z,21.15
2022-11-15T16:10:52.038Z,19.23
2022-11-15T16:13:18.729Z,25.23
2022-11-15T16:15:47.907Z,18.95
2022-11-15T16:18:17.507Z,24.35
2022-11-15T16:20:51.034Z,20.60
2022-11-15T16:23:20.936Z,23.20
2022-11-15T16:25:52.032Z,24.42
2022-11-15T16:28:30.723Z,20.27
2022-11-15T16:31:05.128Z,20.45
2022-11-15T16:33:32.486Z,19.17
2022-11-15T16:35:59.333Z,19.20
2022-11-15T16:38:26.035Z,19.67
2022-11-15T16:40:52.694Z,18.88
2022-11-15T16:43:19.498Z,21.77
2022-11-15T16:45:46.405Z,20.27
2022-11-15T16:48:28.778Z,18.80
2022-11-15T16:50:57.377Z,17.88
2022-11-15T16:53:24.888Z,18.95
2022-11-15T16:55:51.497Z,19.48
2022-11-15T16:58:18.027Z,20.17
2022-11-15T17:00:44.755Z,18.02
2022-11-15T17:03:12.103Z,18.20
2022-11-15T17:05:38.664Z,16.50
2022-11-15T17:08:06.483Z,19.48
2022-11-15T17:10:33.102Z,16.75
2022-11-15T17:12:59.637Z,18.92
2022-11-15T17:15:26.194Z,18.50
2022-11-15T17:17:54.396Z,18.20
2022-11-15T17:20:24.071Z,16.63
2022-11-15T17:22:51.506Z,16.75
2022-11-15T17:25:18.124Z,15.73
2022-11-15T17:27:44.699Z,16.10
2022-11-15T17:30:15.212Z,15.40
2022-11-15T17:32:43.098Z,16.27
2022-11-15T17:35:15.635Z,16.38
2022-11-15T17:37:42.896Z,14.90
2022-11-15T17:40:09.942Z,16.63
2022-11-15T17:42:36.524Z,17.83
2022-11-15T17:45:08.383Z,15.65
2022-11-15T17:47:37.256Z,18.60
2022-11-15T17:50:04.132Z,15.70
2022-11-15T17:52:30.667Z,18.15
2022-11-15T17:54:57.276Z,16.27
2022-11-15T17:57:24.121Z,15.07
2022-11-15T17:59:50.668Z,17.42
2022-11-15T18:02:17.302Z,16.02
2022-11-15T18:04:43.848Z,17.73
2022-11-15T18:07:12.321Z,18.38
2022-11-15T18:09:42.402Z,16.75
2022-11-15T18:12:09.692Z,19.10
2022-11-15T18:14:36.605Z,18.02
2022-11-15T18:17:03.308Z,18.05
2022-11-15T18:19:29.852Z,17.17
2022-11-15T18:21:56.597Z,16.75
2022-11-15T18:24:30.454Z,18.70
2022-11-15T18:26:58.146Z,15.05
2022-11-15T18:29:25.084Z,15.70
2022-11-15T18:34:24.878Z,16.52
2022-11-15T18:36:52.673Z,18.60
2022-11-15T18:39:19.957Z,18.35
2022-11-15T18:41:47.082Z,17.92
2022-11-15T18:44:15.608Z,15.63
2022-11-15T18:46:42.698Z,15.65
2022-11-15T18:49:10.665Z,16.70
2022-11-15T18:51:37.977Z,17.23
2022-11-15T18:54:04.643Z,15.45
2022-11-15T18:56:32.720Z,15.25
2022-11-15T18:59:02.026Z,15.20
2022-11-15T19:01:34.637Z,16.40
2022-11-15T19:04:20.678Z,17.25
2022-11-15T19:06:49.534Z,14.82
2022-11-15T19:09:17.658Z,17.25
2022-11-15T19:11:46.431Z,16.02
2022-11-15T19:14:15.971Z,13.70
2022-11-15T19:16:52.026Z,16.95
2022-11-15T19:19:21.626Z,16.58
2022-11-15T19:21:48.687Z,17.52
2022-11-15T19:24:15.517Z,16.25
2022-11-15T19:26:42.590Z,15.43
2022-11-15T19:29:13.856Z,16.92
2022-11-15T19:31:40.901Z,16.15
2022-11-15T19:34:08.430Z,15.80
2022-11-15T19:36:37.689Z,13.95
2022-11-15T19:39:08.475Z,16.23
2022-11-15T19:41:37.945Z,15.68
2022-11-15T19:44:05.836Z,14.30
2022-11-15T19:46:32.745Z,12.60
2022-11-15T19:48:59.453Z,17.00
2022-11-15T19:51:28.258Z,17.80
2022-11-15T19:54:01.332Z,16.15
2022-11-15T19:56:27.905Z,13.52
2022-11-15T19:58:56.418Z,16.15
2022-11-15T20:01:25.604Z,15.80
2022-11-15T20:03:54.677Z,14.88
2022-11-15T20:06:29.691Z,13.30
2022-11-15T20:08:56.303Z,14.55
2022-11-15T20:11:23.462Z,14.75
2022-11-15T20:13:50.253Z,16.02
2022-11-15T20:16:21.872Z,15.68
2022-11-15T20:18:51.502Z,15.45
2022-11-15T20:21:18.420Z,16.60
2022-11-15T20:23:47.639Z,16.40
2022-11-15T20:26:15.215Z,17.88
2022-11-15T20:28:42.229Z,15.70
2022-11-15T20:31:14.508Z,18.42
2022-11-15T20:33:41.274Z,14.23
2022-11-15T20:36:11.225Z,18.70
2022-11-15T20:38:37.853Z,15.45
2022-11-15T20:41:04.688Z,15.50
2022-11-15T20:43:31.301Z,15.98
2022-11-15T20:45:57.884Z,15.18
2022-11-15T20:48:24.521Z,14.55
2022-11-15T20:50:51.100Z,15.48
2022-11-15T20:53:20.121Z,18.00
2022-11-15T20:55:52.390Z,18.17
2022-11-15T20:58:19.449Z,16.05
2022-11-15T21:00:46.554Z,17.75
2022-11-15T21:03:14.459Z,16.98
2022-11-15T21:05:43.272Z,15.00
2022-11-15T21:08:11.786Z,15.43
2022-11-15T21:10:58.360Z,17.23
2022-11-15T21:13:25.543Z,13.98
2022-11-15T21:15:56.848Z,17.83
2022-11-15T21:18:23.760Z,17.27
2022-11-15T21:20:50.694Z,16.27
2022-11-15T21:23:17.349Z,17.75
2022-11-15T21:25:50.024Z,17.35
2022-11-15T21:28:17.182Z,17.10
2022-11-15T21:30:53.493Z,17.77
2022-11-15T21:33:21.483Z,16.23
2022-11-15T21:35:48.014Z,16.17
2022-11-15T21:38:14.637Z,15.95
2022-11-15T21:40:41.381Z,16.30
2022-11-15T21:43:07.936Z,18.77
2022-11-15T21:45:34.513Z,16.73
2022-11-15T21:48:01.054Z,15.05
2022-11-15T21:50:27.632Z,16.90
2022-11-15T21:52:54.224Z,14.73
2022-11-15T21:55:20.777Z,16.52
2022-11-15T21:57:47.378Z,20.42
2022-11-15T22:00:33.158Z,16.90
2022-11-15T22:02:59.726Z,17.63
2022-11-15T22:05:26.311Z,16.90
2022-11-15T22:07:52.977Z,16.13
2022-11-15T22:10:19.657Z,16.17
2022-11-15T22:12:46.294Z,16.85
2022-11-15T22:15:12.951Z,16.25
2022-11-15T22:18:11.696Z,16.17
2022-11-15T22:20:44.414Z,15.65
2022-11-15T22:23:11.964Z,18.20
2022-11-15T22:25:38.676Z,16.05
2022-11-15T22:28:05.485Z,17.25
2022-11-15T22:30:32.169Z,15.70
2022-11-15T22:32:58.851Z,16.30
2022-11-15T22:35:25.519Z,15.55
2022-11-15T22:37:52.858Z,16.95
2022-11-15T22:40:19.624Z,17.15
2022-11-15T22:42:46.225Z,15.75
2022-11-15T22:45:12.835Z,14.63
2022-11-15T22:47:39.401Z,16.83
2022-11-15T22:50:06.534Z,16.75
2022-11-15T22:52:33.275Z,17.77
2022-11-15T22:54:59.863Z,17.85
2022-11-15T22:57:26.496Z,18.17
2022-11-15T22:59:53.127Z,15.10
2022-11-15T23:02:19.702Z,15.90
2022-11-15T23:04:46.301Z,15.48
2022-11-15T23:07:13.066Z,15.75
2022-11-15T23:09:40.268Z,14.82
2022-11-15T23:12:27.048Z,15.63
2022-11-15T23:14:53.627Z,16.92
2022-11-15T23:17:20.176Z,14.82
2022-11-15T23:19:47.095Z,16.55
2022-11-15T23:22:32.474Z,15.32
2022-11-15T23:24:59.668Z,14.70
2022-11-15T23:27:26.376Z,15.40
2022-11-15T23:30:11.734Z,17.05
2022-11-15T23:32:57.114Z,17.70
2022-11-15T23:35:23.783Z,15.88
2022-11-15T23:37:50.335Z,15.35
2022-11-15T23:40:17.151Z,16.05
2022-11-15T23:42:43.801Z,16.30
2022-11-15T23:45:10.710Z,15.32
2022-11-15T23:47:37.266Z,16.33
2022-11-15T23:50:04.216Z,15.57
2022-11-15T23:52:31.013Z,16.27
2022-11-15T23:54:57.642Z,17.98
2022-11-15T23:57:24.323Z,15.23
2022-11-15T23:59:50.899Z,19.50
